Time;durP1;ratioP1;P1;durP2;ratioP2;P2;SDS_P1;SDS_P2;PMS_P1;PMS_P2;Temp;Humidity;BMP_temperature;BMP_pressure;BME280_temperature;BME280_humidity;BME280_pressure;Samples;Min_cycle;Max_cycle;Signal;HPM_P1;HPM_P2
2022/06/29 00:00:06;;;;;;;8.13;3.65;;;;;;;13.09;100.00;101745.28;5051435;28;20114;-73
2022/06/29 00:02:32;;;;;;;8.88;4.03;;;;;;;13.08;100.00;101743.59;5051396;28;20041;-73
2022/06/29 00:04:57;;;;;;;6.03;3.35;;;;;;;13.04;100.00;101735.00;5051105;28;20035;-73
2022/06/29 00:07:23;;;;;;;4.82;3.38;;;;;;;12.99;100.00;101746.09;5051743;28;20381;-73
2022/06/29 00:09:48;;;;;;;9.35;4.22;;;;;;;12.95;100.00;101735.81;5051114;28;20184;-73
2022/06/29 00:12:13;;;;;;;8.00;4.13;;;;;;;12.91;100.00;101734.38;5050889;28;20048;-72
2022/06/29 00:14:41;;;;;;;6.32;3.28;;;;;;;12.87;100.00;101729.31;5051184;28;20067;-73
2022/06/29 00:17:12;;;;;;;6.03;4.50;;;;;;;12.82;100.00;101725.31;5051606;28;20118;-73
2022/06/29 00:19:38;;;;;;;6.57;3.60;;;;;;;12.80;100.00;101727.28;5050766;28;20044;-73
2022/06/29 00:22:04;;;;;;;4.85;3.50;;;;;;;12.78;100.00;101729.22;5051292;28;20021;-73
2022/06/29 00:24:30;;;;;;;6.40;4.20;;;;;;;12.74;100.00;101722.47;5051163;28;20029;-73
2022/06/29 00:26:56;;;;;;;6.53;4.38;;;;;;;12.72;100.00;101727.97;5051101;28;20037;-73
2022/06/29 00:29:21;;;;;;;10.77;4.78;;;;;;;12.72;100.00;101724.41;5049633;28;20084;-72
2022/06/29 00:31:47;;;;;;;5.85;4.30;;;;;;;12.70;100.00;101721.88;5054268;28;20459;-73
2022/06/29 00:34:12;;;;;;;9.45;4.85;;;;;;;12.65;100.00;101721.44;5055152;28;20029;-73
2022/06/29 00:36:37;;;;;;;7.13;4.50;;;;;;;12.64;100.00;101719.75;5054723;28;20051;-73
2022/06/29 00:39:03;;;;;;;8.15;4.20;;;;;;;12.61;100.00;101720.00;5055045;28;20029;-73
2022/06/29 00:41:28;;;;;;;7.63;3.92;;;;;;;12.56;100.00;101711.56;5054895;28;20473;-73
2022/06/29 00:43:54;;;;;;;8.10;4.13;;;;;;;12.53;100.00;101712.66;5054701;28;20057;-73
2022/06/29 00:46:19;;;;;;;6.32;4.03;;;;;;;12.49;100.00;101717.41;5054004;28;20036;-73
2022/06/29 00:48:44;;;;;;;4.93;3.38;;;;;;;12.47;100.00;101713.19;5053355;28;20033;-73
2022/06/29 00:51:11;;;;;;;6.80;3.42;;;;;;;12.41;100.00;101708.38;5054415;28;20469;-73
2022/06/29 00:53:40;;;;;;;8.57;4.10;;;;;;;12.39;100.00;101705.84;5054562;28;20041;-73
2022/06/29 00:56:09;;;;;;;6.53;3.85;;;;;;;12.37;100.00;101707.75;5054785;28;20056;-73
2022/06/29 00:58:35;;;;;;;6.45;3.85;;;;;;;12.37;100.00;101706.94;5054769;28;20029;-73
2022/06/29 01:01:04;;;;;;;3.50;3.03;;;;;;;12.31;100.00;101698.44;5054635;28;20040;-73
2022/06/29 01:03:32;;;;;;;8.38;3.70;;;;;;;12.30;100.00;101702.13;5054617;28;20029;-73
2022/06/29 01:06:01;;;;;;;6.35;3.88;;;;;;;12.29;100.00;101694.25;5054377;28;20482;-72
2022/06/29 01:08:27;;;;;;;6.15;3.47;;;;;;;12.25;100.00;101693.63;5054473;28;20025;-73
2022/06/29 01:10:52;;;;;;;9.32;4.22;;;;;;;12.24;100.00;101702.63;5054298;28;20171;-72
2022/06/29 01:13:18;;;;;;;6.20;3.40;;;;;;;12.21;100.00;101697.56;5053168;28;20037;-73
2022/06/29 01:15:43;;;;;;;5.25;2.90;;;;;;;12.19;100.00;101694.16;5054350;28;20032;-72
2022/06/29 01:18:09;;;;;;;5.15;3.15;;;;;;;12.16;100.00;101692.56;5054147;28;20041;-73
2022/06/29 01:20:34;;;;;;;3.75;2.83;;;;;;;12.14;100.00;101693.72;5054407;28;20056;-79
2022/06/29 01:23:00;;;;;;;5.05;2.78;;;;;;;12.12;100.00;101692.97;5054691;28;20033;-73
2022/06/29 01:25:25;;;;;;;8.65;3.95;;;;;;;12.11;100.00;101693.97;5054154;28;20043;-73
2022/06/29 01:27:51;;;;;;;4.85;3.25;;;;;;;12.08;100.00;101699.56;5054199;28;20390;-73
2022/06/29 01:30:16;;;;;;;4.30;2.80;;;;;;;12.07;100.00;101695.19;5054064;28;20025;-73
2022/06/29 01:32:42;;;;;;;5.05;3.00;;;;;;;12.06;100.00;101696.16;5053796;28;20429;-72
2022/06/29 01:35:10;;;;;;;4.15;2.95;;;;;;;12.04;100.00;101690.13;5054098;28;20047;-74
2022/06/29 01:37:36;;;;;;;4.40;2.70;;;;;;;12.02;100.00;101695.56;5054219;28;20051;-73
2022/06/29 01:40:03;;;;;;;5.32;3.10;;;;;;;12.02;100.00;101694.72;5053702;28;20033;-73
2022/06/29 01:42:28;;;;;;;3.75;2.70;;;;;;;12.00;100.00;101694.84;5053978;28;20029;-73
2022/06/29 01:44:54;;;;;;;3.00;2.60;;;;;;;11.95;100.00;101692.56;5054136;28;20032;-73
2022/06/29 01:47:19;;;;;;;5.28;3.28;;;;;;;11.96;100.00;101693.41;5053907;28;20036;-73
2022/06/29 01:49:44;;;;;;;5.05;3.20;;;;;;;11.93;100.00;101697.19;5053621;28;20115;-73
2022/06/29 01:52:10;;;;;;;5.25;3.15;;;;;;;11.90;100.00;101689.41;5054295;28;20037;-73
2022/06/29 01:54:35;;;;;;;6.90;3.35;;;;;;;11.89;100.00;101686.88;5053651;28;20120;-73
2022/06/29 01:57:01;;;;;;;5.78;2.75;;;;;;;11.85;100.00;101688.09;5053417;28;20033;-73
2022/06/29 01:59:26;;;;;;;5.10;3.03;;;;;;;11.82;100.00;101690.03;5053468;28;20066;-73
2022/06/29 02:01:51;;;;;;;4.53;2.85;;;;;;;11.79;100.00;101684.97;5053699;28;20033;-73
2022/06/29 02:04:17;;;;;;;3.80;3.25;;;;;;;11.81;100.00;101677.69;5053383;28;20032;-73
2022/06/29 02:06:42;;;;;;;5.72;2.78;;;;;;;11.78;100.00;101677.94;5053294;28;20116;-73
2022/06/29 02:09:08;;;;;;;10.68;3.30;;;;;;;11.77;100.00;101678.88;5053466;28;20041;-73
2022/06/29 02:11:33;;;;;;;5.55;3.00;;;;;;;11.75;100.00;101675.53;5052890;28;20036;-73
2022/06/29 02:13:58;;;;;;;6.10;3.10;;;;;;;11.75;100.00;101674.69;5053065;28;20454;-73
2022/06/29 02:16:24;;;;;;;4.13;2.85;;;;;;;11.76;100.00;101676.34;5053113;28;20029;-73
2022/06/29 02:18:49;;;;;;;5.38;2.60;;;;;;;11.74;100.00;101670.31;5053022;28;20025;-74
2022/06/29 02:21:14;;;;;;;3.85;2.83;;;;;;;11.74;100.00;101662.31;5053116;28;20110;-73
2022/06/29 02:23:40;;;;;;;3.17;2.60;;;;;;;11.74;100.00;101670.31;5053265;28;20086;-73
2022/06/29 02:26:06;;;;;;;3.30;2.80;;;;;;;11.73;100.00;101660.63;5052763;28;20041;-73
2022/06/29 02:28:32;;;;;;;5.95;3.03;;;;;;;11.72;100.00;101662.44;5053130;28;20033;-73
2022/06/29 02:36:25;;;;;;;4.93;3.00;;;;;;;11.76;100.00;101655.91;5053374;28;20047;-73
2022/06/29 02:38:50;;;;;;;4.13;3.00;;;;;;;11.77;100.00;101651.41;5052724;28;20033;-73
2022/06/29 02:41:16;;;;;;;6.45;3.03;;;;;;;11.73;100.00;101650.78;5052208;28;20140;-72
2022/06/29 02:43:41;;;;;;;5.03;3.47;;;;;;;11.73;100.00;101658.78;5052709;28;20499;-73
2022/06/29 02:46:06;;;;;;;5.10;2.80;;;;;;;11.71;100.00;101643.91;5052593;28;20033;-74
2022/06/29 02:48:32;;;;;;;7.00;3.22;;;;;;;11.71;100.00;101652.75;5052776;28;20032;-74
2022/06/29 02:50:59;;;;;;;4.60;3.50;;;;;;;11.71;100.00;101649.25;5052565;28;20418;-74
2022/06/29 02:53:24;;;;;;;4.20;3.33;;;;;;;11.67;100.00;101640.63;5052430;28;20029;-74
2022/06/29 02:55:50;;;;;;;6.45;3.67;;;;;;;11.65;100.00;101645.25;5052684;28;20091;-74
2022/06/29 02:58:15;;;;;;;3.83;2.90;;;;;;;11.63;100.00;101645.38;5052564;28;20396;-74
2022/06/29 03:00:40;;;;;;;3.90;2.47;;;;;;;11.59;100.00;101637.78;5034302;28;20111;-73
2022/06/29 03:03:06;;;;;;;8.00;3.75;;;;;;;11.56;100.00;101635.34;5052379;28;20072;-74
2022/06/29 03:05:31;;;;;;;3.15;2.67;;;;;;;11.52;100.00;101634.75;5052010;28;20505;-73
2022/06/29 03:07:57;;;;;;;5.03;2.65;;;;;;;11.49;100.00;101628.84;5050939;28;20572;-73
2022/06/29 03:10:22;;;;;;;7.82;3.92;;;;;;;11.47;100.00;101631.63;5052292;28;20484;-73
2022/06/29 03:12:47;;;;;;;5.45;3.75;;;;;;;11.47;100.00;101628.97;5052283;28;20029;-80
2022/06/29 03:15:13;;;;;;;5.40;3.28;;;;;;;11.42;100.00;101623.13;5050386;28;20445;-73
2022/06/29 03:17:38;;;;;;;4.50;3.45;;;;;;;11.40;100.00;101622.44;5051954;28;20077;-73
2022/06/29 03:20:05;;;;;;;8.05;3.03;;;;;;;11.37;100.00;101615.53;5052379;28;20037;-73
2022/06/29 03:22:32;;;;;;;5.88;3.05;;;;;;;11.37;100.00;101614.69;5052525;28;20037;-73
2022/06/29 03:24:57;;;;;;;7.15;3.70;;;;;;;11.36;100.00;101613.84;5052334;28;20099;-74
2022/06/29 03:27:23;;;;;;;5.70;3.83;;;;;;;11.35;100.00;101608.66;5051959;28;20164;-73
2022/06/29 03:29:48;;;;;;;4.60;3.40;;;;;;;11.36;100.00;101615.66;5052150;28;20033;-73
2022/06/29 03:32:13;;;;;;;4.40;3.20;;;;;;;11.34;100.00;101610.44;5051872;28;20476;-73
2022/06/29 03:34:39;;;;;;;4.68;3.45;;;;;;;11.34;100.00;101604.28;5051891;28;20037;-73
2022/06/29 03:37:04;;;;;;;4.93;4.10;;;;;;;11.38;100.00;101613.72;5052316;28;20129;-74
2022/06/29 03:39:29;;;;;;;6.63;3.83;;;;;;;11.41;100.00;101608.97;5051447;28;20043;-73
2022/06/29 03:41:55;;;;;;;7.78;3.80;;;;;;;11.43;100.00;101604.38;5051543;28;20477;-74
2022/06/29 03:44:20;;;;;;;7.22;3.80;;;;;;;11.47;100.00;101610.31;5051739;28;20033;-73
2022/06/29 03:46:45;;;;;;;5.95;3.75;;;;;;;11.51;100.00;101610.88;5051272;28;20440;-73
2022/06/29 03:49:11;;;;;;;7.60;3.72;;;;;;;11.55;100.00;101609.66;5051537;28;20045;-73
2022/06/29 03:51:36;;;;;;;6.90;4.10;;;;;;;11.57;100.00;101605.91;5051572;28;20037;-73
2022/06/29 03:54:02;;;;;;;8.30;4.95;;;;;;;11.60;100.00;101612.81;5051687;28;20033;-73
2022/06/29 03:56:28;;;;;;;4.45;3.78;;;;;;;11.62;100.00;101616.19;5051409;28;20036;-73
2022/06/29 03:58:53;;;;;;;5.22;4.03;;;;;;;11.64;100.00;101612.44;5050978;28;20056;-80
2022/06/29 04:01:19;;;;;;;6.57;4.13;;;;;;;11.65;100.00;101608.78;5051205;28;20466;-73
2022/06/29 04:03:44;;;;;;;5.47;4.35;;;;;;;11.72;100.00;101605.59;5051271;28;20123;-72
2022/06/29 04:06:10;;;;;;;4.95;4.28;;;;;;;11.76;100.00;101602.56;5050285;28;20041;-73
2022/06/29 04:08:36;;;;;;;4.95;4.03;;;;;;;11.79;100.00;101602.31;5051293;28;20120;-73
2022/06/29 04:11:02;;;;;;;5.57;3.90;;;;;;;11.82;100.00;101603.84;5051495;28;20033;-73
2022/06/29 04:13:28;;;;;;;5.32;3.88;;;;;;;11.86;100.00;101605.28;5050700;28;20036;-73
2022/06/29 04:15:53;;;;;;;5.35;4.40;;;;;;;11.88;100.00;101607.84;5049656;28;20068;-72
2022/06/29 04:18:19;;;;;;;5.25;4.22;;;;;;;11.91;100.00;101599.56;5049673;28;20072;-73
2022/06/29 04:23:48;;;;;;;5.53;4.15;;;;;;;11.96;100.00;101600.91;5028746;28;20430;-73
2022/06/29 04:26:13;;;;;;;8.55;4.85;;;;;;;11.99;100.00;101602.47;5028708;28;20095;-73
2022/06/29 04:28:38;;;;;;;11.45;5.15;;;;;;;12.04;100.00;101602.09;5038846;28;20388;-73
2022/06/29 04:31:04;;;;;;;5.72;4.30;;;;;;;12.08;100.00;101598.19;5051400;28;20461;-73
2022/06/29 04:33:29;;;;;;;5.93;3.92;;;;;;;12.13;100.00;101598.63;5051168;28;20037;-73
2022/06/29 04:35:55;;;;;;;6.43;5.20;;;;;;;12.19;100.00;101598.09;5051455;28;20082;-73
2022/06/29 04:38:20;;;;;;;5.00;4.50;;;;;;;12.22;100.00;101599.69;5050819;28;20044;-73
2022/06/29 04:40:45;;;;;;;6.43;4.93;;;;;;;12.25;100.00;101597.59;5050778;28;20053;-73
2022/06/29 04:43:11;;;;;;;7.07;4.30;;;;;;;12.27;100.00;101582.31;5050925;28;20506;-73
2022/06/29 04:48:20;;;;;;;4.80;3.90;;;;;;;12.36;100.00;101578.00;5051168;28;20118;-73
2022/06/29 04:50:45;;;;;;;6.10;3.80;;;;;;;12.40;100.00;101581.25;5051012;28;20445;-73
2022/06/29 04:53:10;;;;;;;7.88;4.90;;;;;;;12.43;100.00;101565.78;5050871;28;20033;-73
2022/06/29 04:55:36;;;;;;;8.73;5.00;;;;;;;12.49;100.00;101567.91;5050579;28;20099;-72
2022/06/29 04:58:01;;;;;;;6.13;4.55;;;;;;;12.53;100.00;101563.19;5050682;28;20037;-74
2022/06/29 05:00:27;;;;;;;6.50;4.50;;;;;;;12.60;100.00;101560.81;5050833;28;20123;-73
2022/06/29 05:02:52;;;;;;;7.00;5.07;;;;;;;12.66;100.00;101561.13;5051470;28;20468;-73
2022/06/29 05:05:17;;;;;;;7.05;4.72;;;;;;;12.73;100.00;101555.22;5051776;28;20037;-74
2022/06/29 05:07:43;;;;;;;8.32;6.55;;;;;;;12.81;100.00;101558.91;5052025;28;20033;-72
2022/06/29 05:10:08;;;;;;;9.82;7.38;;;;;;;12.86;100.00;101556.66;5051557;28;20480;-73
2022/06/29 05:12:34;;;;;;;12.05;7.93;;;;;;;12.94;100.00;101558.66;5050136;28;20040;-73
2022/06/29 05:14:59;;;;;;;14.38;7.75;;;;;;;12.99;100.00;101553.75;5051544;28;20025;-74
2022/06/29 05:17:25;;;;;;;11.13;7.07;;;;;;;13.09;100.00;101551.09;5054028;28;20029;-73
2022/06/29 05:19:50;;;;;;;7.10;6.35;;;;;;;13.21;100.00;101562.50;5055090;28;20033;-73
2022/06/29 05:22:15;;;;;;;7.18;5.53;;;;;;;13.30;100.00;101555.47;5055064;28;20026;-73
2022/06/29 05:24:41;;;;;;;7.53;5.18;;;;;;;13.39;100.00;101541.31;5054714;28;20033;-73
2022/06/29 05:27:06;;;;;;;7.93;5.82;;;;;;;13.52;100.00;101549.06;5055129;28;20117;-74
2022/06/29 05:29:31;;;;;;;12.95;7.85;;;;;;;13.62;100.00;101555.25;5054976;28;20037;-75
2022/06/29 05:31:57;;;;;;;12.43;6.68;;;;;;;13.77;100.00;101546.81;5054975;28;20045;-75
2022/06/29 05:34:22;;;;;;;8.68;6.75;;;;;;;13.91;100.00;101546.34;5058488;28;20127;-75
2022/06/29 05:36:48;;;;;;;7.43;6.40;;;;;;;14.10;100.00;101545.44;5059168;28;20036;-74
2022/06/29 05:39:13;;;;;;;8.85;6.50;;;;;;;14.25;100.00;101540.47;5054979;28;20029;-75
2022/06/29 05:41:38;;;;;;;8.68;5.13;;;;;;;14.45;100.00;101539.41;5054937;28;20045;-73
2022/06/29 05:44:04;;;;;;;10.60;6.25;;;;;;;14.58;100.00;101536.38;5054852;28;20117;-73
2022/06/29 05:46:30;;;;;;;20.48;6.13;;;;;;;14.77;100.00;101535.47;5054678;28;20422;-74
2022/06/29 05:48:56;;;;;;;9.55;5.53;;;;;;;14.99;100.00;101530.72;5054507;28;20113;-72
2022/06/29 05:51:22;;;;;;;8.15;6.10;;;;;;;15.18;100.00;101536.91;5054197;28;20062;-74
2022/06/29 05:53:47;;;;;;;9.05;6.00;;;;;;;15.41;100.00;101537.31;5054253;28;20029;-73
2022/06/29 05:56:12;;;;;;;9.57;5.88;;;;;;;15.63;100.00;101539.53;5054189;28;20055;-72
2022/06/29 05:58:38;;;;;;;8.48;5.60;;;;;;;15.85;97.52;101530.16;5053804;28;20040;-71
2022/06/29 06:01:08;;;;;;;10.73;7.70;;;;;;;16.08;95.45;101532.31;5054013;28;20033;-72
2022/06/29 06:03:34;;;;;;;14.75;6.18;;;;;;;16.35;94.69;101530.47;5052864;28;20445;-72
2022/06/29 06:05:59;;;;;;;8.95;5.75;;;;;;;16.53;90.28;101523.13;5054068;28;20202;-71
2022/06/29 06:08:24;;;;;;;9.93;5.80;;;;;;;16.78;87.59;101531.31;5053279;28;20073;-74
2022/06/29 06:10:50;;;;;;;9.60;5.68;;;;;;;16.98;87.19;101531.06;5053752;28;20442;-74
2022/06/29 06:13:15;;;;;;;6.50;5.47;;;;;;;17.19;87.95;101528.72;5053868;28;20357;-73
2022/06/29 06:15:40;;;;;;;8.93;5.60;;;;;;;17.42;87.36;101525.38;5053528;28;20041;-74
2022/06/29 06:18:06;;;;;;;10.00;5.40;;;;;;;17.63;83.46;101524.91;5053781;28;20368;-72
2022/06/29 06:20:31;;;;;;;11.75;5.40;;;;;;;17.82;82.58;101525.53;5053725;28;20136;-72
2022/06/29 06:22:57;;;;;;;8.65;5.32;;;;;;;18.00;80.97;101528.91;5053641;28;20033;-72
2022/06/29 06:25:22;;;;;;;10.52;5.68;;;;;;;18.23;80.71;101515.56;5053598;28;20033;-73
2022/06/29 06:27:48;;;;;;;9.07;5.38;;;;;;;18.45;79.67;101523.88;5051612;28;20039;-73
2022/06/29 06:30:13;;;;;;;8.35;4.93;;;;;;;18.60;75.44;101519.47;5053641;28;20135;-76
2022/06/29 06:32:39;;;;;;;8.13;4.75;;;;;;;18.75;74.77;101526.78;5053557;28;20483;-74
2022/06/29 06:35:05;;;;;;;9.10;4.78;;;;;;;18.87;76.25;101529.94;5053569;28;20102;-73
2022/06/29 06:37:30;;;;;;;7.03;4.72;;;;;;;18.95;73.02;101528.06;5053341;28;20044;-74
2022/06/29 06:42:40;;;;;;;7.28;4.88;;;;;;;19.34;72.67;101529.81;5052841;28;20115;-76
2022/06/29 06:45:06;;;;;;;11.20;4.75;;;;;;;19.55;71.73;101533.69;5053208;28;20124;-76
2022/06/29 06:47:34;;;;;;;6.32;4.90;;;;;;;19.75;71.92;101528.66;5053060;28;20044;-75
2022/06/29 06:50:00;;;;;;;9.98;4.85;;;;;;;19.88;71.40;101533.44;5053464;28;20130;-77
2022/06/29 06:52:25;;;;;;;7.35;4.43;;;;;;;20.00;69.78;101525.72;5053509;28;20036;-79
2022/06/29 06:54:50;;;;;;;8.45;4.90;;;;;;;20.08;68.80;101531.88;5052945;28;20433;-75
2022/06/29 06:57:16;;;;;;;7.40;4.72;;;;;;;20.20;70.02;101526.84;5053038;28;20087;-79
2022/06/29 06:59:41;;;;;;;8.40;5.10;;;;;;;20.30;69.69;101523.03;5053280;28;20075;-75
2022/06/29 07:02:06;;;;;;;10.48;4.65;;;;;;;20.35;69.57;101518.75;5053143;28;20037;-74
2022/06/29 07:04:32;;;;;;;7.80;4.50;;;;;;;20.35;70.55;101526.84;5052732;28;20461;-76
2022/06/29 07:06:57;;;;;;;11.48;4.60;;;;;;;20.25;69.68;101527.13;5052779;28;20098;-74
2022/06/29 07:09:23;;;;;;;6.75;4.40;;;;;;;20.17;72.33;101529.94;5051208;28;20037;-75
2022/06/29 07:11:48;;;;;;;5.88;4.28;;;;;;;20.24;72.56;101530.00;5053069;28;20047;-76
2022/06/29 07:14:14;;;;;;;5.45;4.60;;;;;;;20.42;70.46;101524.22;5053096;28;20037;-74
2022/06/29 07:16:39;;;;;;;5.60;4.47;;;;;;;20.67;70.42;101516.66;5052671;28;20480;-76
2022/06/29 07:19:04;;;;;;;7.85;4.65;;;;;;;20.95;69.13;101516.78;5052610;28;20040;-78
2022/06/29 07:21:30;;;;;;;8.48;4.60;;;;;;;21.10;67.81;101514.03;5052514;28;20049;-76
2022/06/29 07:23:58;;;;;;;8.48;4.35;;;;;;;21.17;66.14;101516.81;5052490;28;20456;-77
2022/06/29 07:26:24;;;;;;;8.98;4.63;;;;;;;21.28;66.27;101513.56;5053267;28;20123;-75
2022/06/29 07:28:50;;;;;;;8.15;4.30;;;;;;;21.39;63.52;101517.66;5052504;28;20033;-75
2022/06/29 07:31:15;;;;;;;9.60;4.10;;;;;;;21.53;65.71;101520.47;5052964;28;20044;-75
2022/06/29 07:33:40;;;;;;;12.15;4.45;;;;;;;21.72;65.04;101510.84;5052199;28;20033;-76
2022/06/29 07:36:06;;;;;;;14.60;4.38;;;;;;;21.90;62.43;101507.66;5050620;28;20045;-75
2022/06/29 07:38:31;;;;;;;10.65;4.25;;;;;;;22.11;64.33;101513.00;5052150;28;20086;-76
2022/06/29 07:40:58;;;;;;;6.82;4.18;;;;;;;22.23;63.15;101507.00;5052055;28;20182;-76
2022/06/29 07:43:24;;;;;;;7.95;4.50;;;;;;;22.38;63.58;101504.19;5052247;28;20041;-76
2022/06/29 07:45:49;;;;;;;9.57;3.90;;;;;;;22.55;62.11;101502.81;5051179;28;20044;-74
2022/06/29 07:48:14;;;;;;;12.43;4.18;;;;;;;22.79;64.11;101501.44;5052087;28;20021;-74
2022/06/29 07:50:40;;;;;;;5.30;3.45;;;;;;;23.03;62.08;101499.19;5052491;28;20346;-72
2022/06/29 07:53:05;;;;;;;7.60;3.60;;;;;;;23.32;62.92;101499.88;5052290;28;20028;-75
2022/06/29 07:55:30;;;;;;;9.68;3.40;;;;;;;23.55;61.28;101499.47;5051884;28;20469;-77
2022/06/29 07:57:56;;;;;;;13.82;4.07;;;;;;;23.68;58.96;101517.66;5052007;28;20041;-76
2022/06/29 08:00:22;;;;;;;5.68;3.83;;;;;;;23.88;59.86;101513.06;5051961;28;20491;-76
2022/06/29 08:02:48;;;;;;;7.88;3.78;;;;;;;24.05;58.22;101510.75;5052591;28;20044;-76
2022/06/29 08:05:13;;;;;;;8.38;3.45;;;;;;;24.11;58.22;101511.78;5052317;28;20469;-76
2022/06/29 08:07:39;;;;;;;8.52;3.10;;;;;;;24.13;58.30;101503.41;5051995;28;20033;-76
2022/06/29 08:10:05;;;;;;;5.70;2.90;;;;;;;24.16;55.79;101505.69;5052694;28;20140;-75
2022/06/29 08:12:30;;;;;;;6.43;3.00;;;;;;;24.28;54.46;101504.81;5052102;28;20033;-76
2022/06/29 08:14:55;;;;;;;7.22;3.33;;;;;;;24.41;54.04;101501.22;5051760;28;20438;-77
2022/06/29 08:17:21;;;;;;;9.18;2.97;;;;;;;24.58;55.42;101498.00;5051167;28;20029;-75
2022/06/29 08:19:46;;;;;;;8.57;3.33;;;;;;;24.68;52.07;101503.00;5052726;28;20090;-77
2022/06/29 08:22:12;;;;;;;8.75;2.70;;;;;;;24.80;52.74;101496.66;5052441;28;20472;-76
2022/06/29 08:24:37;;;;;;;11.50;2.30;;;;;;;24.94;52.26;101491.13;5052181;28;20465;-77
2022/06/29 08:27:03;;;;;;;4.80;2.10;;;;;;;25.08;51.87;101495.44;5051240;28;20075;-75
2022/06/29 08:29:28;;;;;;;7.78;2.60;;;;;;;25.13;49.21;101494.78;5051903;28;20038;-79
2022/06/29 08:31:53;;;;;;;6.75;2.75;;;;;;;25.35;52.01;101495.28;5052286;28;20112;-75
2022/06/29 08:34:51;;;;;;;4.80;2.35;;;;;;;25.50;47.79;101486.78;5051997;28;20112;-75
2022/06/29 08:37:10;;;;;;;6.38;2.47;;;;;;;25.80;48.24;101483.34;5050714;28;20505;-77
2022/06/29 08:39:35;;;;;;;7.47;2.38;;;;;;;26.03;46.88;101479.97;5051618;28;20083;-74
2022/06/29 08:42:04;;;;;;;5.50;2.47;;;;;;;26.37;45.40;101483.97;5051539;28;20126;-76
2022/06/29 08:44:32;;;;;;;9.88;2.63;;;;;;;26.50;44.78;101480.25;5051845;28;20045;-83
2022/06/29 08:47:00;;;;;;;9.40;2.53;;;;;;;26.78;47.86;101484.28;5052143;28;20047;-74
2022/06/29 08:49:26;;;;;;;3.63;2.17;;;;;;;27.45;46.27;101480.56;5051352;28;20029;-77
2022/06/29 08:51:56;;;;;;;5.68;2.17;;;;;;;28.17;42.20;101486.84;5053536;28;20110;-74
2022/06/29 08:54:24;;;;;;;9.20;2.07;;;;;;;28.76;38.20;101476.53;5055662;28;20341;-74
2022/06/29 08:56:51;;;;;;;4.90;2.00;;;;;;;29.46;38.80;101476.38;5056086;28;20021;-76
2022/06/29 08:59:18;;;;;;;2.92;1.92;;;;;;;30.20;35.94;101476.06;5055801;28;20037;-77
2022/06/29 09:01:43;;;;;;;9.88;2.33;;;;;;;30.75;34.61;101473.38;5055906;28;20029;-76
2022/06/29 09:04:09;;;;;;;4.28;1.90;;;;;;;31.38;34.78;101481.94;5056099;28;20033;-76
2022/06/29 09:06:34;;;;;;;5.93;1.70;;;;;;;31.69;30.89;101471.13;5055228;28;20120;-78
2022/06/29 09:08:59;;;;;;;7.22;1.80;;;;;;;32.16;30.91;101478.56;5055199;28;20053;-74
2022/06/29 09:11:31;;;;;;;6.43;1.60;;;;;;;31.66;31.39;101468.91;5055103;28;20052;-75
2022/06/29 09:14:12;;;;;;;6.82;1.65;;;;;;;32.30;30.94;101470.63;5055446;28;20029;-76
2022/06/29 09:16:55;;;;;;;11.13;1.70;;;;;;;32.98;28.89;101468.84;5055666;28;20032;-77
2022/06/29 09:19:25;;;;;;;5.95;1.90;;;;;;;33.41;27.71;101468.56;5054881;28;20033;-80
2022/06/29 09:21:52;;;;;;;2.50;1.80;;;;;;;33.69;27.46;101465.19;5055095;28;20112;-75
2022/06/29 09:24:20;;;;;;;11.13;1.85;;;;;;;34.33;28.25;101460.00;5055169;28;20485;-76
2022/06/29 09:26:55;;;;;;;5.43;1.80;;;;;;;33.03;27.94;101469.66;5055127;28;20108;-76
2022/06/29 09:29:30;;;;;;;3.58;1.63;;;;;;;33.69;26.30;101464.38;5055485;28;20025;-75
2022/06/29 09:32:04;;;;;;;7.55;1.83;;;;;;;34.12;27.69;101467.56;5054949;28;20094;-76
2022/06/29 09:34:30;;;;;;;5.22;2.10;;;;;;;34.47;27.13;101468.47;5054981;28;20033;-76
2022/06/29 09:36:57;;;;;;;9.38;1.90;;;;;;;34.63;27.94;101454.59;5054816;28;20036;-74
2022/06/29 09:39:37;;;;;;;2.08;1.60;;;;;;;34.45;25.53;101462.44;5054671;28;20047;-75
2022/06/29 09:42:11;;;;;;;3.22;1.73;;;;;;;34.55;26.59;101461.56;5054853;28;20422;-74
2022/06/29 09:44:37;;;;;;;6.10;1.63;;;;;;;34.39;26.93;101464.38;5054835;28;20087;-75
2022/06/29 09:47:06;;;;;;;4.93;1.55;;;;;;;34.53;27.19;101461.00;5054775;28;20029;-76
2022/06/29 09:49:34;;;;;;;5.38;1.83;;;;;;;34.52;27.64;101460.19;5054598;28;20029;-76
2022/06/29 09:52:01;;;;;;;6.03;1.63;;;;;;;34.49;25.86;101454.41;5054854;28;20120;-75
2022/06/29 09:54:39;;;;;;;3.05;1.70;;;;;;;34.61;25.34;101465.94;5054443;28;20037;-78
2022/06/29 09:57:07;;;;;;;9.02;1.77;;;;;;;34.09;26.59;101466.16;5054700;28;20115;-78
2022/06/29 10:02:39;;;;;;;7.07;1.73;;;;;;;34.37;26.71;101454.75;5054179;28;20102;-75
2022/06/29 10:05:08;;;;;;;9.75;1.73;;;;;;;34.05;25.23;101462.34;5054134;28;20055;-76
2022/06/29 10:07:35;;;;;;;3.38;1.40;;;;;;;34.02;25.10;101456.56;5054240;28;20029;-78
2022/06/29 10:10:03;;;;;;;4.93;1.70;;;;;;;34.19;26.19;101458.97;5054006;28;20095;-77
2022/06/29 10:16:02;;;;;;;3.08;1.38;;;;;;;34.17;26.68;101458.41;5054444;28;20051;-79
2022/06/29 10:19:11;;;;;;;2.75;1.20;;;;;;;34.51;25.21;101446.66;5054122;28;20330;-78
2022/06/29 10:21:36;;;;;;;6.30;1.65;;;;;;;34.46;24.03;101449.44;5053477;28;20025;-80
2022/06/29 10:24:03;;;;;;;6.13;1.98;;;;;;;34.90;24.11;101449.41;5053497;28;20094;-78
2022/06/29 10:26:30;;;;;;;19.48;1.60;;;;;;;34.76;25.24;101451.19;5053565;28;20534;-77
2022/06/29 10:28:57;;;;;;;4.75;1.42;;;;;;;34.41;23.03;101453.91;5053366;28;20448;-77
2022/06/29 10:32:00;;;;;;;2.03;1.48;;;;;;;33.31;24.87;101445.44;5054131;28;20068;-78
2022/06/29 10:34:28;;;;;;;3.80;1.70;;;;;;;32.78;25.78;101442.91;5054202;28;20037;-77
2022/06/29 10:37:02;;;;;;;3.65;1.65;;;;;;;33.61;25.91;101440.94;5053242;28;20172;-78
2022/06/29 10:39:49;;;;;;;9.05;1.80;;;;;;;34.17;25.08;101433.56;5053848;28;20056;-77
2022/06/29 10:45:06;;;;;;;7.95;2.30;;;;;;;34.32;25.89;101436.25;5053206;28;20095;-76
2022/06/29 10:47:32;;;;;;;4.78;1.77;;;;;;;34.28;24.99;101431.59;5053373;28;20461;-75
2022/06/29 10:50:13;;;;;;;7.13;2.10;;;;;;;34.92;25.78;101421.47;5051943;28;20048;-74
2022/06/29 10:52:39;;;;;;;6.93;1.80;;;;;;;34.89;25.39;101419.31;5052333;28;20033;-76
2022/06/29 10:55:06;;;;;;;3.83;1.58;;;;;;;34.91;23.56;101425.38;5053455;28;20063;-75
2022/06/29 10:57:38;;;;;;;4.85;2.00;;;;;;;34.90;25.00;101424.53;5052762;28;20036;-75
2022/06/29 11:00:09;;;;;;;4.13;2.03;;;;;;;35.45;26.33;101426.25;5052700;28;20045;-76
2022/06/29 11:02:35;;;;;;;4.55;2.28;;;;;;;35.45;24.67;101427.06;5053003;28;20036;-76
2022/06/29 11:05:01;;;;;;;6.13;1.80;;;;;;;35.49;23.95;101425.38;5052389;28;20051;-75
2022/06/29 11:12:56;;;;;;;5.78;1.88;;;;;;;34.93;26.17;101436.97;5051550;28;20142;-75
2022/06/29 11:15:48;;;;;;;4.00;1.73;;;;;;;33.62;27.18;101431.56;5051887;28;20033;-77
2022/06/29 11:18:20;;;;;;;8.63;1.95;;;;;;;32.36;26.77;101427.41;5052345;28;20033;-77
2022/06/29 11:20:51;;;;;;;7.72;1.77;;;;;;;31.36;28.32;101433.78;5052023;28;20111;-75
2022/06/29 11:23:19;;;;;;;10.43;1.70;;;;;;;31.05;29.57;101433.56;5052360;28;20029;-78
2022/06/29 11:25:47;;;;;;;12.30;1.90;;;;;;;31.41;27.17;101436.56;5052096;28;20029;-75
2022/06/29 11:28:17;;;;;;;4.72;1.50;;;;;;;31.89;25.84;101436.56;5051998;28;20040;-77
2022/06/29 11:31:03;;;;;;;3.75;1.60;;;;;;;31.91;28.96;101442.66;5052202;28;20040;-78
2022/06/29 11:33:32;;;;;;;6.22;2.05;;;;;;;31.46;27.92;101431.94;5051865;28;20059;-79
2022/06/29 11:36:03;;;;;;;6.63;1.60;;;;;;;31.25;27.90;101443.91;5052840;28;20029;-77
2022/06/29 11:38:29;;;;;;;5.40;1.60;;;;;;;31.46;26.52;101433.88;5052959;28;20029;-80
2022/06/29 11:40:54;;;;;;;4.70;1.52;;;;;;;32.22;25.96;101437.28;5052465;28;20048;-80
2022/06/29 11:43:21;;;;;;;5.18;1.50;;;;;;;32.56;25.68;101440.41;5052588;28;20420;-76
2022/06/29 11:45:56;;;;;;;6.97;1.80;;;;;;;33.11;26.83;101434.38;5052355;28;20255;-78